createdAt,value
2022-10-30T00:01:04.664Z,100.00
2022-10-30T00:03:31.392Z,100.00
2022-10-30T00:05:58.056Z,100.00
2022-10-30T00:08:25.800Z,100.00
2022-10-30T00:10:52.573Z,100.00
2022-10-30T00:13:20.020Z,100.00
2022-10-30T00:15:48.537Z,100.00
2022-10-30T00:18:15.336Z,100.00
2022-10-30T00:20:41.780Z,100.00
2022-10-30T00:23:08.192Z,100.00
2022-10-30T00:25:36.192Z,100.00
2022-10-30T00:28:05.975Z,100.00
2022-10-30T00:30:33.917Z,100.00
2022-10-30T00:33:00.767Z,100.00
2022-10-30T00:35:27.614Z,100.00
2022-10-30T00:37:54.111Z,100.00
2022-10-30T00:40:20.885Z,100.00
2022-10-30T00:42:47.305Z,100.00
2022-10-30T00:45:16.002Z,100.00
2022-10-30T00:47:52.453Z,100.00
2022-10-30T00:50:18.859Z,100.00
2022-10-30T00:52:54.565Z,100.00
2022-10-30T00:55:26.738Z,100.00
2022-10-30T00:57:53.406Z,100.00
2022-10-30T01:00:22.296Z,100.00
2022-10-30T01:02:50.442Z,100.00
2022-10-30T01:05:19.856Z,100.00
2022-10-30T01:07:46.259Z,100.00
2022-10-30T01:10:13.820Z,100.00
2022-10-30T01:12:43.772Z,100.00
2022-10-30T01:15:12.225Z,100.00
2022-10-30T01:17:54.286Z,100.00
2022-10-30T01:20:42.484Z,100.00
2022-10-30T01:23:14.952Z,100.00
2022-10-30T01:25:53.284Z,100.00
2022-10-30T01:28:40.931Z,100.00
2022-10-30T01:31:27.372Z,100.00
2022-10-30T01:34:06.058Z,100.00
2022-10-30T01:36:39.262Z,100.00
2022-10-30T01:39:18.896Z,100.00
2022-10-30T01:41:45.493Z,100.00
2022-10-30T01:44:18.558Z,100.00
2022-10-30T01:47:03.868Z,100.00
2022-10-30T01:49:48.405Z,100.00
2022-10-30T01:52:19.208Z,100.00
2022-10-30T01:54:55.724Z,100.00
2022-10-30T01:57:28.684Z,100.00
2022-10-30T02:00:14.215Z,100.00
2022-10-30T02:02:41.943Z,100.00
2022-10-30T02:05:11.823Z,100.00
2022-10-30T02:07:38.319Z,100.00
2022-10-30T02:10:05.481Z,100.00
2022-10-30T02:12:31.988Z,100.00
2022-10-30T02:15:00.816Z,100.00
2022-10-30T02:17:28.490Z,100.00
2022-10-30T02:19:54.977Z,100.00
2022-10-30T02:22:21.585Z,100.00
2022-10-30T02:24:48.020Z,100.00
2022-10-30T02:27:14.389Z,100.00
2022-10-30T02:29:40.869Z,100.00
2022-10-30T02:32:07.472Z,100.00
2022-10-30T02:34:33.889Z,100.00
2022-10-30T02:37:00.320Z,100.00
2022-10-30T02:39:42.023Z,100.00
2022-10-30T02:42:10.347Z,100.00
2022-10-30T02:44:37.067Z,100.00
2022-10-30T02:47:03.831Z,100.00
2022-10-30T02:49:30.222Z,100.00
2022-10-30T02:51:56.667Z,100.00
2022-10-30T02:54:23.124Z,100.00
2022-10-30T02:56:55.739Z,100.00
2022-10-30T02:59:23.592Z,100.00
2022-10-30T03:01:50.111Z,100.00
2022-10-30T03:04:20.537Z,100.00
2022-10-30T03:06:47.101Z,100.00
2022-10-30T03:09:13.769Z,100.00
2022-10-30T03:11:40.374Z,100.00
2022-10-30T03:14:12.266Z,100.00
2022-10-30T03:16:38.682Z,100.00
2022-10-30T03:19:05.530Z,100.00
2022-10-30T03:21:31.937Z,100.00
2022-10-30T03:23:58.629Z,100.00
2022-10-30T03:26:25.253Z,100.00
2022-10-30T03:28:51.751Z,100.00
2022-10-30T03:31:19.498Z,100.00
2022-10-30T03:33:46.664Z,100.00
2022-10-30T03:36:14.774Z,100.00
2022-10-30T03:38:41.706Z,100.00
2022-10-30T03:41:08.564Z,100.00
2022-10-30T03:43:34.999Z,100.00
2022-10-30T03:46:01.729Z,100.00
2022-10-30T03:48:29.606Z,100.00
2022-10-30T03:50:57.544Z,100.00
2022-10-30T03:53:26.159Z,100.00
2022-10-30T03:55:56.523Z,100.00
2022-10-30T03:58:22.889Z,100.00
2022-10-30T04:00:49.239Z,100.00
2022-10-30T04:03:15.577Z,100.00
2022-10-30T04:05:42.803Z,100.00
2022-10-30T04:08:13.525Z,100.00
2022-10-30T04:10:44.368Z,100.00
2022-10-30T04:13:12.832Z,100.00
2022-10-30T04:15:39.280Z,100.00
2022-10-30T04:18:06.417Z,100.00
2022-10-30T04:20:33.119Z,100.00
2022-10-30T04:23:03.157Z,100.00
2022-10-30T04:25:30.325Z,100.00
2022-10-30T04:27:57.043Z,100.00
2022-10-30T04:30:25.497Z,100.00
2022-10-30T04:32:54.502Z,100.00
2022-10-30T04:35:23.626Z,100.00
2022-10-30T04:37:58.485Z,100.00
2022-10-30T04:40:27.081Z,100.00
2022-10-30T04:42:53.870Z,100.00
2022-10-30T04:45:20.459Z,100.00
2022-10-30T04:47:47.203Z,100.00
2022-10-30T04:50:14.803Z,100.00
2022-10-30T04:52:41.601Z,100.00
2022-10-30T04:55:09.173Z,100.00
2022-10-30T04:57:36.860Z,100.00
2022-10-30T05:00:08.110Z,100.00
2022-10-30T05:02:36.992Z,100.00
2022-10-30T05:05:04.456Z,100.00
2022-10-30T05:07:31.288Z,100.00
2022-10-30T05:09:58.081Z,100.00
2022-10-30T05:12:24.444Z,100.00
2022-10-30T05:14:50.840Z,100.00
2022-10-30T05:17:17.314Z,100.00
2022-10-30T05:19:43.731Z,100.00
2022-10-30T05:22:10.476Z,100.00
2022-10-30T05:24:36.927Z,100.00
2022-10-30T05:27:03.628Z,100.00
2022-10-30T05:29:30.201Z,100.00
2022-10-30T05:31:56.767Z,100.00
2022-10-30T05:34:23.548Z,100.00
2022-10-30T05:36:49.998Z,100.00
2022-10-30T05:39:16.437Z,100.00
2022-10-30T05:41:42.926Z,100.00
2022-10-30T05:44:09.529Z,100.00
2022-10-30T05:46:35.978Z,100.00
2022-10-30T05:49:02.437Z,100.00
2022-10-30T05:51:28.899Z,100.00
2022-10-30T05:53:55.366Z,100.00
2022-10-30T05:56:21.791Z,100.00
2022-10-30T05:58:51.332Z,100.00
2022-10-30T06:01:18.222Z,100.00
2022-10-30T06:03:44.969Z,100.00
2022-10-30T06:06:11.539Z,100.00
2022-10-30T06:08:37.959Z,100.00
2022-10-30T06:11:04.302Z,100.00
2022-10-30T06:13:30.685Z,100.00
2022-10-30T06:15:57.163Z,100.00
2022-10-30T06:18:23.633Z,100.00
2022-10-30T06:20:50.039Z,100.00
2022-10-30T06:23:16.454Z,100.00
2022-10-30T06:25:42.851Z,100.00
2022-10-30T06:28:11.247Z,100.00
2022-10-30T06:30:38.098Z,100.00
2022-10-30T06:33:05.254Z,100.00
2022-10-30T06:35:31.896Z,100.00
2022-10-30T06:38:00.178Z,100.00
2022-10-30T06:40:27.689Z,100.00
2022-10-30T06:42:54.273Z,100.00
2022-10-30T06:45:22.103Z,100.00
2022-10-30T06:47:48.780Z,100.00
2022-10-30T06:50:17.908Z,100.00
2022-10-30T06:52:44.885Z,100.00
2022-10-30T06:55:11.845Z,100.00
2022-10-30T06:57:38.727Z,100.00
2022-10-30T07:00:06.861Z,100.00
2022-10-30T07:02:33.775Z,100.00
2022-10-30T07:05:00.130Z,100.00
2022-10-30T07:07:26.473Z,100.00
2022-10-30T07:09:52.833Z,100.00
2022-10-30T07:12:19.346Z,100.00
2022-10-30T07:14:45.708Z,100.00
2022-10-30T07:17:12.074Z,99.26
2022-10-30T07:19:38.493Z,96.48
2022-10-30T07:22:04.871Z,96.80
2022-10-30T07:24:31.260Z,97.05
2022-10-30T07:26:57.594Z,97.90
2022-10-30T07:29:23.950Z,98.25
2022-10-30T07:32:02.292Z,98.54
2022-10-30T07:34:29.313Z,98.52
2022-10-30T07:36:55.639Z,98.83
2022-10-30T07:39:22.007Z,99.31
2022-10-30T07:41:50.409Z,99.90
2022-10-30T07:44:16.899Z,99.98
2022-10-30T07:46:43.256Z,100.00
2022-10-30T07:49:09.608Z,100.00
2022-10-30T07:51:35.943Z,100.00
2022-10-30T07:54:02.274Z,99.99
2022-10-30T07:56:28.639Z,100.00
2022-10-30T07:58:55.095Z,100.00
2022-10-30T08:01:21.540Z,100.00
2022-10-30T08:03:47.997Z,100.00
2022-10-30T08:06:14.351Z,100.00
2022-10-30T08:08:43.391Z,100.00
2022-10-30T08:11:10.092Z,100.00
2022-10-30T08:13:36.456Z,100.00
2022-10-30T08:16:02.831Z,100.00
2022-10-30T08:18:29.266Z,100.00
2022-10-30T08:20:55.620Z,100.00
2022-10-30T08:23:23.148Z,100.00
2022-10-30T08:25:49.487Z,100.00
2022-10-30T08:28:15.870Z,100.00
2022-10-30T08:30:42.217Z,99.80
2022-10-30T08:33:15.553Z,99.52
2022-10-30T08:35:53.146Z,99.16
2022-10-30T08:38:19.870Z,98.88
2022-10-30T08:40:46.217Z,98.37
2022-10-30T08:43:12.934Z,97.98
2022-10-30T08:45:39.657Z,97.76
2022-10-30T08:48:07.311Z,96.95
2022-10-30T08:50:35.244Z,96.69
2022-10-30T08:53:06.503Z,95.98
2022-10-30T08:55:33.390Z,95.61
2022-10-30T08:58:00.334Z,95.12
2022-10-30T09:00:27.124Z,94.74
2022-10-30T09:02:53.477Z,94.54
2022-10-30T09:05:20.473Z,94.19
2022-10-30T09:07:47.100Z,94.10
2022-10-30T09:10:14.582Z,93.70
2022-10-30T09:12:41.004Z,93.02
2022-10-30T09:15:08.052Z,93.08
2022-10-30T09:17:34.399Z,93.55
2022-10-30T09:20:00.779Z,93.29
2022-10-30T09:22:27.105Z,94.36
2022-10-30T09:24:53.540Z,93.27
2022-10-30T09:27:19.949Z,93.05
2022-10-30T09:29:46.313Z,92.61
2022-10-30T09:32:12.670Z,92.33
2022-10-30T09:34:39.582Z,91.91
2022-10-30T09:37:05.955Z,92.63
2022-10-30T09:39:32.384Z,92.28
2022-10-30T09:42:16.965Z,92.44
2022-10-30T09:45:15.153Z,92.02
2022-10-30T09:47:50.508Z,92.17
2022-10-30T09:50:25.873Z,91.83
2022-10-30T09:53:45.259Z,91.77
2022-10-30T09:56:31.642Z,91.68
2022-10-30T09:59:30.114Z,92.05
2022-10-30T10:02:21.800Z,91.98
2022-10-30T10:04:52.483Z,92.16
2022-10-30T10:07:32.172Z,92.22
2022-10-30T10:10:04.234Z,92.54
2022-10-30T10:12:40.570Z,92.50
2022-10-30T10:15:25.003Z,92.06
2022-10-30T10:17:51.665Z,91.98
2022-10-30T10:20:30.306Z,91.15
2022-10-30T10:22:59.946Z,89.57
2022-10-30T10:25:30.363Z,89.08
2022-10-30T10:28:20.670Z,89.11
2022-10-30T10:30:53.116Z,88.75
2022-10-30T10:33:31.674Z,88.06
2022-10-30T10:36:08.216Z,88.08
2022-10-30T10:38:54.388Z,87.62
2022-10-30T10:41:42.008Z,87.91
2022-10-30T10:44:17.406Z,87.17
2022-10-30T10:46:43.689Z,87.09
2022-10-30T10:49:39.019Z,86.31
2022-10-30T10:52:30.057Z,85.71
2022-10-30T10:55:02.403Z,85.76
2022-10-30T10:57:33.582Z,84.52
2022-10-30T11:00:13.613Z,85.54
2022-10-30T11:02:58.887Z,85.05
2022-10-30T11:05:52.077Z,84.84
2022-10-30T11:08:27.404Z,84.32
2022-10-30T11:11:14.288Z,83.44
2022-10-30T11:13:43.302Z,82.99
2022-10-30T11:16:37.804Z,81.53
2022-10-30T11:19:08.958Z,81.65
2022-10-30T11:21:41.988Z,79.76
2022-10-30T11:24:28.604Z,79.40
2022-10-30T11:26:57.430Z,79.10
2022-10-30T11:29:27.840Z,79.22
2022-10-30T11:32:05.491Z,79.48
2022-10-30T11:34:34.414Z,78.59
2022-10-30T11:37:00.888Z,78.44
2022-10-30T11:39:30.058Z,77.60
2022-10-30T11:42:03.372Z,78.19
2022-10-30T11:44:45.381Z,78.85
2022-10-30T11:47:15.545Z,78.26
2022-10-30T11:49:51.586Z,78.91
2022-10-30T11:52:20.850Z,78.81
2022-10-30T11:54:56.112Z,78.87
2022-10-30T11:57:33.448Z,78.81
2022-10-30T12:00:05.035Z,78.60
2022-10-30T12:02:41.987Z,77.89
2022-10-30T12:05:43.748Z,78.40
2022-10-30T12:08:18.619Z,77.07
2022-10-30T12:10:59.913Z,77.82
2022-10-30T12:13:28.089Z,76.16
2022-10-30T12:16:07.584Z,76.58
2022-10-30T12:18:34.805Z,77.22
2022-10-30T12:21:02.602Z,77.40
2022-10-30T12:23:29.594Z,77.66
2022-10-30T12:25:58.953Z,77.05
2022-10-30T12:28:29.085Z,77.29
2022-10-30T12:31:04.416Z,78.18
2022-10-30T12:33:45.909Z,78.81
2022-10-30T12:36:18.617Z,79.73
2022-10-30T12:38:56.391Z,78.95
2022-10-30T12:41:40.186Z,77.94
2022-10-30T12:44:26.119Z,77.98
2022-10-30T12:47:02.175Z,77.90
2022-10-30T12:49:46.529Z,78.52
2022-10-30T12:52:21.658Z,78.98
2022-10-30T12:55:15.964Z,78.76
2022-10-30T12:58:14.249Z,78.93
2022-10-30T13:01:05.074Z,78.91
2022-10-30T13:03:39.151Z,78.57
2022-10-30T13:06:22.362Z,78.74
2022-10-30T13:09:26.291Z,78.78
2022-10-30T13:12:03.993Z,78.64
2022-10-30T13:14:38.629Z,78.06
2022-10-30T13:17:10.710Z,78.35
2022-10-30T13:19:37.993Z,78.33
2022-10-30T13:22:12.400Z,79.09
2022-10-30T13:25:16.743Z,79.50
2022-10-30T13:27:58.478Z,78.62
2022-10-30T13:30:30.439Z,78.13
2022-10-30T13:33:09.002Z,77.91
2022-10-30T13:35:50.592Z,77.46
2022-10-30T13:38:36.670Z,78.07
2022-10-30T13:41:39.917Z,78.55
2022-10-30T13:44:24.524Z,78.03
2022-10-30T13:47:07.995Z,77.81
2022-10-30T13:49:41.971Z,77.99
2022-10-30T13:52:17.332Z,78.41
2022-10-30T13:55:05.333Z,79.09
2022-10-30T13:57:39.766Z,79.35
2022-10-30T14:00:12.997Z,79.34
2022-10-30T14:02:54.845Z,79.63
2022-10-30T14:05:58.481Z,79.19
2022-10-30T14:08:35.852Z,78.59
2022-10-30T14:11:05.581Z,79.23
2022-10-30T14:14:04.464Z,79.58
2022-10-30T14:16:45.321Z,79.75
2022-10-30T14:19:16.710Z,80.18
2022-10-30T14:21:59.063Z,80.58
2022-10-30T14:24:35.252Z,80.87
2022-10-30T14:27:04.608Z,81.49
2022-10-30T14:29:41.110Z,81.60
2022-10-30T14:32:13.591Z,81.93
2022-10-30T14:34:44.017Z,81.63
2022-10-30T14:37:12.296Z,82.00
2022-10-30T14:39:41.329Z,82.13
2022-10-30T14:42:13.703Z,81.59
2022-10-30T14:44:52.326Z,81.43
2022-10-30T14:47:50.772Z,81.37
2022-10-30T14:50:26.483Z,81.28
2022-10-30T14:52:56.128Z,81.60
2022-10-30T14:55:29.198Z,82.30
2022-10-30T14:58:01.985Z,82.26
2022-10-30T15:00:42.162Z,82.68
2022-10-30T15:03:31.704Z,82.96
2022-10-30T15:06:04.842Z,83.08
2022-10-30T15:08:59.290Z,83.74
2022-10-30T15:11:35.354Z,83.81
2022-10-30T15:14:40.421Z,84.15
2022-10-30T15:17:33.570Z,84.64
2022-10-30T15:20:02.966Z,84.82
2022-10-30T15:22:30.330Z,85.08
2022-10-30T15:24:56.905Z,85.02
2022-10-30T15:27:25.487Z,85.60
2022-10-30T15:30:02.281Z,85.93
2022-10-30T15:32:28.659Z,86.23
2022-10-30T15:35:03.611Z,86.23
2022-10-30T15:37:30.660Z,86.42
2022-10-30T15:40:18.452Z,86.80
2022-10-30T15:42:47.278Z,86.82
2022-10-30T15:45:25.565Z,87.07
2022-10-30T15:48:26.378Z,87.41
2022-10-30T15:51:17.603Z,87.66
2022-10-30T15:53:51.354Z,87.93
2022-10-30T15:56:44.442Z,88.09
2022-10-30T15:59:26.652Z,88.67
2022-10-30T16:01:55.413Z,88.90
2022-10-30T16:04:23.374Z,89.16
2022-10-30T16:06:55.867Z,89.28
2022-10-30T16:09:24.068Z,89.70
2022-10-30T16:11:52.665Z,89.97
2022-10-30T16:14:24.522Z,90.18
2022-10-30T16:16:51.930Z,90.54
2022-10-30T16:19:29.144Z,90.70
2022-10-30T16:21:57.082Z,90.51
2022-10-30T16:24:32.434Z,90.98
2022-10-30T16:27:28.184Z,90.80
2022-10-30T16:29:59.882Z,90.48
2022-10-30T16:32:29.601Z,90.73
2022-10-30T16:35:01.404Z,90.62
2022-10-30T16:37:40.663Z,90.86
2022-10-30T16:40:14.156Z,91.16
2022-10-30T16:42:40.676Z,91.12
2022-10-30T16:45:13.223Z,91.06
2022-10-30T16:47:44.716Z,91.67
2022-10-30T16:50:15.447Z,91.70
2022-10-30T16:52:43.346Z,91.66
2022-10-30T16:55:19.927Z,91.91
2022-10-30T16:57:53.059Z,91.98
2022-10-30T17:00:27.334Z,92.05
2022-10-30T17:02:56.450Z,92.21
2022-10-30T17:05:24.956Z,92.23
2022-10-30T17:07:56.068Z,92.26
2022-10-30T17:10:44.027Z,92.37
2022-10-30T17:13:32.853Z,92.76
2022-10-30T17:16:24.703Z,92.73
2022-10-30T17:18:53.673Z,92.74
2022-10-30T17:21:24.711Z,93.02
2022-10-30T17:23:59.958Z,92.75
2022-10-30T17:26:28.753Z,93.05
2022-10-30T17:28:55.175Z,93.12
2022-10-30T17:31:39.895Z,93.02
2022-10-30T17:34:27.532Z,93.34
2022-10-30T17:36:56.474Z,93.12
2022-10-30T17:39:22.804Z,93.44
2022-10-30T17:41:49.315Z,93.11
2022-10-30T17:44:22.850Z,93.29
2022-10-30T17:46:51.003Z,93.11
2022-10-30T17:49:31.645Z,92.99
2022-10-30T17:51:58.481Z,93.03
2022-10-30T17:54:25.525Z,92.79
2022-10-30T17:56:52.636Z,93.06
2022-10-30T17:59:19.081Z,93.04
2022-10-30T18:01:45.586Z,93.19
2022-10-30T18:04:19.753Z,93.40
2022-10-30T18:06:47.382Z,93.31
2022-10-30T18:09:13.945Z,93.02
2022-10-30T18:11:40.415Z,93.05
2022-10-30T18:14:07.003Z,93.28
2022-10-30T18:16:33.363Z,93.72
2022-10-30T18:18:59.761Z,94.02
2022-10-30T18:21:27.477Z,94.20
2022-10-30T18:23:54.978Z,94.55
2022-10-30T18:26:24.426Z,94.71
2022-10-30T18:28:51.281Z,94.84
2022-10-30T18:31:20.810Z,94.90
2022-10-30T18:33:47.596Z,95.22
2022-10-30T18:36:18.980Z,94.92
2022-10-30T18:38:45.952Z,95.33
2022-10-30T18:41:29.605Z,95.61
2022-10-30T18:43:55.988Z,95.60
2022-10-30T18:46:23.573Z,96.20
2022-10-30T18:48:49.923Z,96.41
2022-10-30T18:51:22.681Z,96.58
2022-10-30T18:53:52.488Z,96.67
2022-10-30T18:56:30.151Z,96.43
2022-10-30T18:59:01.651Z,96.25
2022-10-30T19:01:30.296Z,96.31
2022-10-30T19:03:56.781Z,96.36
2022-10-30T19:06:24.254Z,96.67
2022-10-30T19:08:50.841Z,97.01
2022-10-30T19:11:23.960Z,97.13
2022-10-30T19:13:52.114Z,97.45
2022-10-30T19:16:19.588Z,97.54
2022-10-30T19:18:47.360Z,97.73
2022-10-30T19:21:21.911Z,98.13
2022-10-30T19:23:49.091Z,98.28
2022-10-30T19:26:16.923Z,98.21
2022-10-30T19:28:44.373Z,98.16
2022-10-30T19:31:15.131Z,98.19
2022-10-30T19:33:41.855Z,98.05
2022-10-30T19:36:28.544Z,97.82
2022-10-30T19:38:55.851Z,97.83
2022-10-30T19:41:24.444Z,97.56
2022-10-30T19:43:50.897Z,97.40
2022-10-30T19:46:17.258Z,97.37
2022-10-30T19:49:00.117Z,97.36
2022-10-30T19:51:28.065Z,97.58
2022-10-30T19:53:54.519Z,97.77
2022-10-30T19:56:21.334Z,97.88
2022-10-30T19:58:47.896Z,97.94
2022-10-30T20:01:14.638Z,98.09
2022-10-30T20:03:41.112Z,98.28
2022-10-30T20:06:07.678Z,98.53
2022-10-30T20:08:34.097Z,98.63
2022-10-30T20:11:01.908Z,98.92
2022-10-30T20:13:29.394Z,99.18
2022-10-30T20:15:58.771Z,99.62
2022-10-30T20:18:31.397Z,99.61
2022-10-30T20:21:00.214Z,99.50
2022-10-30T20:23:27.576Z,99.58
2022-10-30T20:26:04.093Z,99.98
2022-10-30T20:28:39.684Z,100.00
2022-10-30T20:31:07.532Z,100.00
2022-10-30T20:33:34.891Z,100.00
2022-10-30T20:36:01.301Z,100.00
2022-10-30T20:38:31.154Z,100.00
2022-10-30T20:41:01.862Z,100.00
2022-10-30T20:43:37.117Z,100.00
2022-10-30T20:46:05.953Z,100.00
2022-10-30T20:48:33.051Z,100.00
2022-10-30T20:51:00.628Z,100.00
2022-10-30T20:53:28.278Z,100.00
2022-10-30T20:55:54.746Z,100.00
2022-10-30T20:58:21.421Z,100.00
2022-10-30T21:00:47.853Z,100.00
2022-10-30T21:03:14.675Z,100.00
2022-10-30T21:05:44.270Z,100.00
2022-10-30T21:08:12.900Z,100.00
2022-10-30T21:10:39.917Z,100.00
2022-10-30T21:13:09.027Z,100.00
2022-10-30T21:15:41.356Z,100.00
2022-10-30T21:18:08.229Z,100.00
2022-10-30T21:20:34.704Z,100.00
2022-10-30T21:23:01.040Z,100.00
2022-10-30T21:25:27.434Z,100.00
2022-10-30T21:27:56.448Z,100.00
2022-10-30T21:30:22.807Z,100.00
2022-10-30T21:32:49.205Z,100.00
2022-10-30T21:35:16.217Z,100.00
2022-10-30T21:37:42.658Z,100.00
2022-10-30T21:40:09.570Z,100.00
2022-10-30T21:42:35.902Z,100.00
2022-10-30T21:45:02.298Z,100.00
2022-10-30T21:47:28.639Z,100.00
2022-10-30T21:49:55.072Z,100.00
2022-10-30T21:52:21.449Z,100.00
2022-10-30T21:54:47.792Z,100.00
2022-10-30T21:57:14.154Z,100.00
2022-10-30T21:59:40.510Z,100.00
2022-10-30T22:02:07.113Z,100.00
2022-10-30T22:04:33.512Z,100.00
2022-10-30T22:06:59.838Z,100.00
2022-10-30T22:09:26.306Z,100.00
2022-10-30T22:11:52.678Z,100.00
2022-10-30T22:14:19.104Z,100.00
2022-10-30T22:16:45.479Z,100.00
2022-10-30T22:19:11.825Z,100.00
2022-10-30T22:21:38.274Z,100.00
2022-10-30T22:24:04.914Z,100.00
2022-10-30T22:26:31.883Z,100.00
2022-10-30T22:29:00.209Z,100.00
2022-10-30T22:31:28.742Z,100.00
2022-10-30T22:33:55.447Z,100.00
2022-10-30T22:36:32.514Z,100.00
2022-10-30T22:39:01.035Z,100.00
2022-10-30T22:41:31.401Z,100.00
2022-10-30T22:44:02.793Z,100.00
2022-10-30T22:46:30.844Z,100.00
2022-10-30T22:48:58.159Z,100.00
2022-10-30T22:51:25.415Z,100.00
2022-10-30T22:54:01.428Z,100.00
2022-10-30T22:56:30.456Z,100.00
2022-10-30T22:58:57.538Z,100.00
2022-10-30T23:01:26.398Z,100.00
2022-10-30T23:03:55.585Z,100.00
2022-10-30T23:06:22.882Z,100.00
2022-10-30T23:08:52.130Z,100.00
2022-10-30T23:11:18.962Z,100.00
2022-10-30T23:13:45.376Z,100.00
2022-10-30T23:16:18.184Z,100.00
2022-10-30T23:18:45.339Z,100.00
2022-10-30T23:21:17.869Z,100.00
2022-10-30T23:23:44.867Z,100.00
2022-10-30T23:26:20.399Z,100.00
2022-10-30T23:28:47.885Z,100.00
2022-10-30T23:31:38.549Z,100.00
2022-10-30T23:34:10.913Z,100.00
2022-10-30T23:36:37.793Z,100.00
2022-10-30T23:39:07.813Z,100.00
2022-10-30T23:41:34.860Z,100.00
2022-10-30T23:44:04.960Z,100.00
2022-10-30T23:46:32.577Z,100.00
2022-10-30T23:48:59.069Z,100.00
2022-10-30T23:51:25.953Z,100.00
2022-10-30T23:53:52.304Z,100.00
2022-10-30T23:56:18.893Z,100.00
2022-10-30T23:58:46.629Z,100.00
